Meadow Lake Airport
CYLJ : now visible

Airfield :











YOU CAN JOIN US ON...

 
LOGIN :

Register | Disclaimer

   EN    FR    IT 

 









Legend :    VFR   Marginal VFR   IFR   Intensive IFR   Very Intensive IFR
Visi :
Ceiling :
>= 8 km
>= 3000ft
5 to 8 km
1000 to 3000 ft
1500m to 5 km
500 to 1000 ft
800 to 1500m
200 to 500 ft
< 800m
< 200 ft
Symbols :   Thunderstorms  Fog  Heavy snow  Heavy precipitations  Wind > 20 kt






- Airport Elevation : 1576 ft
- IATA code : YLJ


CYLJ - Meadow Lake

CURRENT METAR :
  • 301900Z 29011KT 270V330 15SM SCT055 SCT250 20/06 A2997 RMK CU4CI1 CI TR SLP158 DENSITY ALT 2500FT

EXPIRED METARs :
  • 301800Z 30013KT 260V340 15SM SCT047 SCT250 18/07 A2997 RMK CU3CI1 CI TR SLP159 DENSITY ALT 2300FT
  • 301700Z 30011KT 15SM FEW045 FEW070 17/06 A2998 RMK CU1AC1 CU TR AC TR SLP161 DENSITY ALT 2200FT

TAF N/A
CZWG FIR / North America



MET'MAP, your aeronautical weather chart ! - Copyright ORBIFLY December 2007 - Disclaimer

ORBIFLY MET'MAP TEAM :

Programming & Development : Alexandra Zaïnal
Original concept : Baudouin d'Aumeries
Technical & hardware support : Manuel Goepfert
Assistance : Marc-Olivier Méhu




SOURCES & CREDITS :

   NOAA       Earth
Advisory